Time;durP1;ratioP1;P1;durP2;ratioP2;P2;SDS_P1;SDS_P2;PMS_P1;PMS_P2;Temp;Humidity;BMP_temperature;BMP_pressure;BME280_temperature;BME280_humidity;BME280_pressure;Samples;Min_cycle;Max_cycle;Signal;HPM_P1;HPM_P2
2021/04/30 04:02:08;;;;;;;11.50;10.40;;;9.30;99.90;;;;;;5186776;23;20514;-65
2021/04/30 04:04:34;;;;;;;10.47;9.40;;;9.30;99.90;;;;;;4977013;28;20443;-65
2021/04/30 04:07:00;;;;;;;11.53;10.53;;;9.20;99.90;;;;;;4977281;28;20458;-65
2021/04/30 04:09:27;;;;;;;11.20;10.10;;;9.10;99.90;;;;;;4977238;28;20458;-65
2021/04/30 04:11:53;;;;;;;11.23;10.13;;;9.10;99.90;;;;;;4976748;28;21052;-66
2021/04/30 04:14:19;;;;;;;10.87;9.97;;;9.10;99.90;;;;;;4977027;28;20454;-65
2021/04/30 04:16:45;;;;;;;11.63;10.53;;;9.10;99.90;;;;;;4976926;28;20451;-65
2021/04/30 04:19:14;;;;;;;10.40;9.47;;;9.00;99.90;;;;;;4976632;28;20894;-65
2021/04/30 04:21:40;;;;;;;11.80;10.87;;;9.00;99.90;;;;;;4976882;28;20486;-66
2021/04/30 04:24:08;;;;;;;11.37;10.37;;;8.80;99.90;;;;;;4976415;28;20988;-66
2021/04/30 04:26:34;;;;;;;11.80;10.70;;;8.90;99.90;;;;;;4976924;28;20469;-66
2021/04/30 04:29:00;;;;;;;11.40;10.40;;;8.80;99.90;;;;;;4976817;28;20459;-65
2021/04/30 04:31:26;;;;;;;10.73;9.80;;;8.90;99.90;;;;;;4976692;28;20471;-65
2021/04/30 04:33:53;;;;;;;11.20;10.30;;;8.90;99.90;;;;;;4976694;28;20533;-64
2021/04/30 04:36:20;;;;;;;12.70;10.50;;;8.90;99.90;;;;;;4976869;28;20455;-64
2021/04/30 04:38:46;;;;;;;10.67;9.67;;;8.90;99.90;;;;;;4976605;28;20455;-66
2021/04/30 04:41:12;;;;;;;10.37;9.33;;;9.00;99.90;;;;;;4976121;28;21017;-65
2021/04/30 04:43:39;;;;;;;12.10;10.90;;;8.90;99.90;;;;;;4976553;28;20477;-66
2021/04/30 04:46:05;;;;;;;11.80;10.80;;;9.00;99.90;;;;;;4976520;28;20454;-65
2021/04/30 04:48:31;;;;;;;11.70;10.70;;;8.90;99.90;;;;;;4976278;28;20480;-66
2021/04/30 04:50:57;;;;;;;11.00;10.00;;;8.80;99.90;;;;;;4976049;28;20475;-65
2021/04/30 04:53:24;;;;;;;11.70;10.80;;;8.80;99.90;;;;;;4976212;28;20454;-66
2021/04/30 04:55:50;;;;;;;11.03;10.13;;;8.80;99.90;;;;;;4975983;28;20949;-65
2021/04/30 04:58:17;;;;;;;12.33;11.13;;;8.80;99.90;;;;;;4976141;28;20439;-66
2021/04/30 05:00:43;;;;;;;11.60;10.60;;;8.90;99.90;;;;;;4975809;28;20483;-66
2021/04/30 05:03:09;;;;;;;11.83;10.80;;;8.90;99.90;;;;;;4976373;28;20807;-66
2021/04/30 05:05:35;;;;;;;12.50;11.30;;;8.80;99.90;;;;;;4975878;28;20509;-65
2021/04/30 05:08:01;;;;;;;11.57;10.57;;;8.80;99.90;;;;;;4975965;28;20462;-66
2021/04/30 05:10:28;;;;;;;11.43;10.43;;;8.80;99.90;;;;;;4975900;28;20442;-66
2021/04/30 05:12:54;;;;;;;12.33;11.20;;;8.80;99.90;;;;;;4975907;28;20458;-64
2021/04/30 05:15:22;;;;;;;12.40;11.20;;;8.80;99.90;;;;;;4975742;28;20445;-65
2021/04/30 05:17:48;;;;;;;12.87;11.60;;;8.90;99.90;;;;;;4975479;28;20454;-65
2021/04/30 05:20:14;;;;;;;13.73;12.40;;;9.00;99.90;;;;;;4975604;28;20609;-65
2021/04/30 05:22:42;;;;;;;12.50;11.30;;;9.00;99.90;;;;;;4975939;28;20455;-65
2021/04/30 05:25:10;;;;;;;12.10;10.77;;;9.10;99.90;;;;;;4975387;28;20960;-64
2021/04/30 05:27:40;;;;;;;12.67;11.47;;;9.20;99.90;;;;;;4975691;28;20451;-65
2021/04/30 05:30:08;;;;;;;11.80;10.80;;;9.10;99.90;;;;;;4975744;28;20889;-65
2021/04/30 05:32:34;;;;;;;11.93;10.83;;;9.10;99.90;;;;;;4975470;28;20501;-64
2021/04/30 05:35:03;;;;;;;13.20;11.80;;;9.30;99.90;;;;;;4975342;28;20462;-64
2021/04/30 05:37:29;;;;;;;11.87;10.77;;;9.50;99.90;;;;;;4975418;28;20544;-64
2021/04/30 05:39:57;;;;;;;10.57;9.57;;;9.70;99.90;;;;;;4975176;28;20457;-64
2021/04/30 05:42:23;;;;;;;10.73;9.63;;;9.80;99.90;;;;;;4974984;28;20533;-64
2021/04/30 05:44:51;;;;;;;12.00;10.90;;;10.00;99.90;;;;;;4975147;28;20467;-64
2021/04/30 05:47:17;;;;;;;14.43;10.20;;;10.10;99.90;;;;;;4975944;28;20819;-64
2021/04/30 05:49:43;;;;;;;11.37;10.47;;;10.10;99.90;;;;;;4975001;28;20455;-64
2021/04/30 05:52:09;;;;;;;10.87;9.87;;;10.10;99.90;;;;;;4974770;28;20818;-64
2021/04/30 05:54:35;;;;;;;11.43;10.30;;;10.00;99.90;;;;;;4975042;28;20465;-65
2021/04/30 05:57:02;;;;;;;10.47;9.57;;;10.10;99.90;;;;;;4975014;28;20509;-65
2021/04/30 05:59:28;;;;;;;9.73;8.83;;;10.20;99.90;;;;;;4974995;28;20465;-64
2021/04/30 06:01:55;;;;;;;10.13;9.23;;;10.40;99.90;;;;;;4973773;28;20601;-65
2021/04/30 06:04:24;;;;;;;10.47;9.57;;;10.60;99.90;;;;;;4974809;28;20929;-64
2021/04/30 06:06:50;;;;;;;10.60;9.70;;;10.60;99.90;;;;;;4974907;28;20509;-65
2021/04/30 06:09:17;;;;;;;10.93;9.93;;;10.60;99.90;;;;;;4974894;28;20610;-66
2021/04/30 06:11:43;;;;;;;11.27;10.23;;;10.90;99.90;;;;;;4974765;28;20533;-64
2021/04/30 06:14:09;;;;;;;10.23;9.33;;;11.00;99.90;;;;;;4974828;28;20455;-65
2021/04/30 06:16:35;;;;;;;13.40;11.17;;;11.20;99.90;;;;;;4974694;28;20466;-64
2021/04/30 06:19:03;;;;;;;11.40;10.30;;;11.20;99.90;;;;;;4974506;28;20454;-66
2021/04/30 06:21:29;;;;;;;13.03;10.70;;;11.10;99.90;;;;;;4974612;28;20490;-65
2021/04/30 06:23:56;;;;;;;11.27;10.30;;;11.00;99.90;;;;;;4974497;28;20988;-64
2021/04/30 06:26:22;;;;;;;11.40;10.17;;;11.10;99.90;;;;;;4974726;28;20462;-65
2021/04/30 06:28:49;;;;;;;10.93;9.93;;;11.10;99.90;;;;;;4974747;28;20527;-66
2021/04/30 06:31:15;;;;;;;11.33;9.80;;;11.00;99.90;;;;;;4974640;28;20478;-66
2021/04/30 06:33:41;;;;;;;11.03;10.10;;;11.00;99.90;;;;;;4974755;28;20812;-66
2021/04/30 06:36:08;;;;;;;10.37;9.47;;;11.00;99.90;;;;;;4974717;28;20455;-66
2021/04/30 06:38:34;;;;;;;12.00;10.20;;;11.10;99.90;;;;;;4974678;28;20461;-66
2021/04/30 06:41:01;;;;;;;12.90;10.83;;;11.10;99.90;;;;;;4974438;28;20869;-65
2021/04/30 06:43:27;;;;;;;11.13;9.97;;;10.90;99.90;;;;;;4974553;28;20450;-64
2021/04/30 06:45:53;;;;;;;11.03;10.03;;;10.90;99.90;;;;;;4974111;28;21000;-64
2021/04/30 06:48:20;;;;;;;10.50;9.60;;;11.00;99.90;;;;;;4974511;28;20957;-64
2021/04/30 06:50:46;;;;;;;12.53;10.70;;;10.90;99.90;;;;;;4974450;28;20533;-65
2021/04/30 06:53:13;;;;;;;11.03;10.13;;;10.80;99.90;;;;;;4974592;28;20454;-64
2021/04/30 06:55:39;;;;;;;10.27;9.47;;;11.00;99.90;;;;;;4974361;28;20462;-64
2021/04/30 06:58:05;;;;;;;9.83;9.03;;;11.00;99.90;;;;;;4974418;28;20481;-65
2021/04/30 07:00:32;;;;;;;16.10;9.97;;;11.00;99.90;;;;;;4974151;28;20485;-64
2021/04/30 07:02:58;;;;;;;9.63;8.73;;;10.80;99.90;;;;;;4974039;28;20506;-66
2021/04/30 07:05:24;;;;;;;10.20;9.20;;;10.80;99.90;;;;;;4974424;28;20458;-65
2021/04/30 07:07:50;;;;;;;10.33;9.43;;;10.90;99.90;;;;;;4974485;28;20461;-66
2021/04/30 07:10:18;;;;;;;14.33;10.40;;;11.00;99.90;;;;;;4974323;28;20465;-66
2021/04/30 07:12:44;;;;;;;11.53;10.53;;;11.00;99.90;;;;;;4975883;28;20450;-66
2021/04/30 07:15:11;;;;;;;9.70;8.80;;;10.80;99.90;;;;;;4977610;28;20968;-65
2021/04/30 07:17:37;;;;;;;11.10;10.10;;;10.80;99.90;;;;;;4977912;28;20458;-66
2021/04/30 07:20:04;;;;;;;10.30;9.13;;;11.00;99.90;;;;;;4977776;28;20458;-64
2021/04/30 07:22:31;;;;;;;12.17;10.80;;;11.00;99.90;;;;;;4977355;28;20976;-64
2021/04/30 07:24:57;;;;;;;12.33;10.07;;;11.00;99.90;;;;;;4977714;28;20461;-64
2021/04/30 07:27:24;;;;;;;11.70;10.70;;;10.80;99.90;;;;;;4977689;28;20470;-64
2021/04/30 07:29:50;;;;;;;9.13;8.33;;;10.90;99.90;;;;;;4977928;28;20458;-64
2021/04/30 07:32:16;;;;;;;11.87;10.80;;;10.90;99.90;;;;;;4978039;28;20474;-65
2021/04/30 07:34:43;;;;;;;10.73;9.83;;;10.90;99.90;;;;;;4977783;28;20880;-65
2021/04/30 07:37:09;;;;;;;11.20;10.10;;;11.00;99.90;;;;;;4977763;28;20458;-65
2021/04/30 07:39:36;;;;;;;9.80;8.90;;;11.00;99.90;;;;;;4977302;28;20466;-65
2021/04/30 07:42:03;;;;;;;12.27;11.17;;;11.10;99.90;;;;;;4977522;28;20486;-64
2021/04/30 07:44:30;;;;;;;11.87;10.70;;;11.00;99.90;;;;;;4977725;28;20458;-65
2021/04/30 07:46:57;;;;;;;12.07;11.07;;;10.70;99.90;;;;;;4977505;28;20462;-64
2021/04/30 07:49:23;;;;;;;11.93;7.57;;;10.70;99.90;;;;;;4977640;28;20469;-65
2021/04/30 07:51:49;;;;;;;10.73;9.83;;;10.70;99.90;;;;;;4977716;28;20475;-65
2021/04/30 07:54:17;;;;;;;11.73;9.97;;;10.80;99.90;;;;;;4977264;28;20800;-65
2021/04/30 07:56:44;;;;;;;10.20;9.30;;;11.00;99.90;;;;;;4977647;28;20463;-64
2021/04/30 07:59:10;;;;;;;11.57;10.37;;;11.00;99.90;;;;;;4977144;28;20459;-64
2021/04/30 08:01:37;;;;;;;9.93;9.10;;;10.90;99.90;;;;;;4976800;28;20494;-64
2021/04/30 08:04:04;;;;;;;10.30;8.80;;;10.70;99.90;;;;;;4977231;28;20458;-64
2021/04/30 08:06:30;;;;;;;12.80;10.13;;;10.80;99.90;;;;;;4977099;28;20459;-65
2021/04/30 08:08:56;;;;;;;10.73;9.83;;;10.80;99.90;;;;;;4977549;28;20445;-65
2021/04/30 08:11:23;;;;;;;11.00;10.20;;;10.80;99.90;;;;;;4977943;28;20904;-65
2021/04/30 08:13:49;;;;;;;10.33;9.50;;;10.80;99.90;;;;;;4977842;28;20450;-65
2021/04/30 08:16:16;;;;;;;11.17;9.97;;;10.80;99.90;;;;;;4976884;28;20893;-65
2021/04/30 08:18:43;;;;;;;11.23;10.13;;;10.90;99.90;;;;;;4980494;28;20562;-65
2021/04/30 08:21:09;;;;;;;11.03;9.47;;;11.00;99.90;;;;;;4981227;28;20501;-65
2021/04/30 08:23:35;;;;;;;11.20;10.20;;;11.20;99.90;;;;;;4981028;28;20459;-65
2021/04/30 08:26:01;;;;;;;9.33;8.53;;;11.20;99.90;;;;;;4986554;28;20462;-65
2021/04/30 08:28:28;;;;;;;11.80;10.80;;;11.10;99.90;;;;;;4980237;28;20446;-65
2021/04/30 08:30:54;;;;;;;10.83;9.93;;;10.80;99.90;;;;;;4977704;28;20471;-65
2021/04/30 08:33:24;;;;;;;16.10;10.73;;;10.80;99.90;;;;;;4978134;28;20465;-66
2021/04/30 08:35:52;;;;;;;12.40;11.17;;;10.70;99.90;;;;;;4978377;28;20465;-65
2021/04/30 08:38:18;;;;;;;14.30;10.53;;;10.60;99.90;;;;;;4977181;28;20454;-65
2021/04/30 08:40:44;;;;;;;11.47;10.47;;;10.60;99.90;;;;;;4976998;28;20529;-65
2021/04/30 08:43:10;;;;;;;8.57;7.73;;;10.70;99.90;;;;;;4977036;28;20455;-65
2021/04/30 08:45:39;;;;;;;11.00;10.00;;;10.70;99.90;;;;;;4976707;28;20454;-64
2021/04/30 08:48:09;;;;;;;10.23;9.17;;;10.90;99.90;;;;;;4976959;28;20458;-64
2021/04/30 08:50:35;;;;;;;10.87;8.93;;;11.00;99.90;;;;;;4976790;28;20478;-64
2021/04/30 08:53:05;;;;;;;12.07;11.03;;;11.00;99.90;;;;;;4977217;28;20462;-63
2021/04/30 08:55:31;;;;;;;11.80;10.70;;;11.10;99.90;;;;;;4977045;28;20493;-63
2021/04/30 08:57:58;;;;;;;12.80;11.50;;;11.20;99.90;;;;;;4977068;28;20795;-64
2021/04/30 09:00:25;;;;;;;12.80;11.70;;;11.10;99.90;;;;;;4977193;28;20455;-63
2021/04/30 09:02:52;;;;;;;20.93;12.37;;;10.90;99.90;;;;;;4976727;28;20494;-63
2021/04/30 09:05:26;;;;;;;14.33;12.93;;;10.70;99.90;;;;;;4976541;28;20454;-65
2021/04/30 09:07:55;;;;;;;13.87;12.57;;;10.70;99.90;;;;;;4976221;28;20479;-65
2021/04/30 09:10:22;;;;;;;13.30;12.00;;;10.60;99.90;;;;;;4976121;28;20466;-64
2021/04/30 09:13:06;;;;;;;13.93;12.43;;;10.40;99.90;;;;;;4975774;28;20450;-65
2021/04/30 09:15:33;;;;;;;16.30;13.60;;;10.40;99.90;;;;;;4975790;28;20454;-65
2021/04/30 09:18:19;;;;;;;16.20;14.23;;;10.40;99.90;;;;;;4975935;28;20943;-64
2021/04/30 09:20:47;;;;;;;15.77;14.20;;;10.40;99.90;;;;;;4976692;28;20481;-63
2021/04/30 09:23:34;;;;;;;16.37;14.57;;;10.30;99.90;;;;;;4977568;28;20454;-64
2021/04/30 09:26:02;;;;;;;15.47;13.07;;;10.30;99.90;;;;;;4976785;28;20454;-65
2021/04/30 09:28:28;;;;;;;14.37;12.43;;;10.30;99.90;;;;;;4976807;28;20510;-64
2021/04/30 09:30:55;;;;;;;15.10;13.73;;;10.40;99.90;;;;;;4975569;28;20545;-65
2021/04/30 09:33:22;;;;;;;14.73;13.43;;;10.30;99.90;;;;;;4975618;28;20462;-64
2021/04/30 09:35:49;;;;;;;15.30;13.70;;;10.30;99.90;;;;;;4974826;28;20459;-63
2021/04/30 09:38:27;;;;;;;16.47;14.80;;;10.40;99.90;;;;;;4975791;28;20454;-65
2021/04/30 09:41:07;;;;;;;18.03;12.60;;;10.20;99.90;;;;;;4975486;28;21051;-63
2021/04/30 09:43:44;;;;;;;15.20;13.87;;;10.30;99.90;;;;;;4975411;28;20850;-65
2021/04/30 09:46:25;;;;;;;14.93;13.60;;;10.20;99.90;;;;;;4975774;28;20462;-64
2021/04/30 09:49:02;;;;;;;15.20;13.67;;;10.30;99.90;;;;;;4975373;28;20517;-64
2021/04/30 09:51:45;;;;;;;13.87;12.47;;;10.30;99.90;;;;;;4975347;28;20482;-64
2021/04/30 09:54:23;;;;;;;14.73;13.00;;;10.40;99.90;;;;;;4975621;28;20486;-64
2021/04/30 09:57:04;;;;;;;14.87;13.47;;;10.60;99.90;;;;;;4975901;28;20466;-64
2021/04/30 09:59:30;;;;;;;15.23;13.63;;;10.60;99.90;;;;;;4975460;28;20526;-65
2021/04/30 10:02:07;;;;;;;15.53;14.13;;;10.70;99.90;;;;;;4974164;28;21000;-64
2021/04/30 10:04:35;;;;;;;14.00;12.70;;;10.70;99.90;;;;;;4974544;28;20443;-64
2021/04/30 10:07:02;;;;;;;14.50;13.17;;;10.60;99.90;;;;;;4974416;28;20474;-65
2021/04/30 10:09:30;;;;;;;15.60;13.97;;;10.70;99.90;;;;;;4974329;28;20459;-65
2021/04/30 10:11:57;;;;;;;15.00;13.57;;;10.50;99.90;;;;;;4974269;28;20475;-65
2021/04/30 10:14:24;;;;;;;15.07;13.70;;;10.30;99.90;;;;;;4973993;28;20461;-65
2021/04/30 10:16:51;;;;;;;14.53;13.20;;;10.40;99.90;;;;;;4982095;28;20455;-65
2021/04/30 10:19:17;;;;;;;18.77;13.57;;;10.30;99.90;;;;;;4990382;28;20458;-65
2021/04/30 10:21:45;;;;;;;14.17;12.87;;;10.30;99.90;;;;;;4990643;28;20515;-64
2021/04/30 10:24:15;;;;;;;14.93;13.53;;;10.40;99.90;;;;;;4990475;28;20463;-64
2021/04/30 10:26:42;;;;;;;16.37;14.77;;;10.30;99.90;;;;;;4977208;28;20932;-65
2021/04/30 10:29:12;;;;;;;17.23;15.43;;;10.40;99.90;;;;;;4975154;28;20453;-64
2021/04/30 10:31:43;;;;;;;16.23;14.63;;;10.40;99.90;;;;;;4975673;28;20474;-65
2021/04/30 10:34:17;;;;;;;15.10;13.50;;;10.30;99.90;;;;;;4974279;28;20443;-65
2021/04/30 10:36:48;;;;;;;17.47;15.67;;;10.20;99.90;;;;;;4974122;28;20497;-66
2021/04/30 10:39:25;;;;;;;17.33;15.63;;;10.10;99.90;;;;;;4973931;28;20811;-63
2021/04/30 10:41:51;;;;;;;17.83;16.03;;;10.00;99.90;;;;;;4974271;28;20482;-65
2021/04/30 10:44:21;;;;;;;24.67;18.80;;;10.00;99.90;;;;;;4973854;28;20459;-66
2021/04/30 10:46:49;;;;;;;20.60;18.47;;;10.00;99.90;;;;;;4974063;28;20458;-64
2021/04/30 10:49:19;;;;;;;19.20;17.40;;;9.90;99.90;;;;;;4977053;28;20960;-63
2021/04/30 10:52:16;;;;;;;22.60;20.40;;;9.70;99.90;;;;;;4977157;28;20474;-64
2021/04/30 10:54:43;;;;;;;21.63;19.53;;;9.70;99.90;;;;;;4976854;28;20965;-64
2021/04/30 10:57:12;;;;;;;19.13;17.13;;;9.80;99.90;;;;;;4977135;28;20541;-63
2021/04/30 10:59:47;;;;;;;21.33;19.33;;;9.80;99.90;;;;;;4977047;28;20443;-64
2021/04/30 11:02:19;;;;;;;21.53;19.33;;;9.90;99.90;;;;;;4958072;28;578464;-64
2021/04/30 11:05:10;;;;;;;21.20;19.17;;;9.80;99.90;;;;;;4978280;28;20184;-64
2021/04/30 11:07:38;;;;;;;21.70;19.30;;;9.90;99.90;;;;;;4978143;28;20454;-62
2021/04/30 11:10:33;;;;;;;23.20;19.83;;;9.80;99.90;;;;;;4977805;28;20841;-64
2021/04/30 11:13:09;;;;;;;22.70;20.50;;;9.80;99.90;;;;;;4976333;28;20459;-64
2021/04/30 11:15:58;;;;;;;21.37;19.37;;;9.40;99.90;;;;;;4977948;28;20909;-64
2021/04/30 11:18:25;;;;;;;20.70;17.10;;;9.50;99.90;;;;;;4978078;28;20493;-65
2021/04/30 11:21:04;;;;;;;18.43;16.60;;;9.40;99.90;;;;;;4978379;28;20880;-64
2021/04/30 11:23:38;;;;;;;18.93;17.13;;;9.50;99.90;;;;;;4978461;28;20842;-65
2021/04/30 11:26:09;;;;;;;17.83;15.97;;;9.40;99.90;;;;;;4978206;28;20445;-65
2021/04/30 11:29:15;;;;;;;18.53;16.63;;;9.40;99.90;;;;;;4977897;28;20439;-66
2021/04/30 11:31:42;;;;;;;15.13;13.60;;;9.10;99.90;;;;;;4973992;28;20564;-66
2021/04/30 11:34:20;;;;;;;16.37;14.67;;;9.30;99.90;;;;;;4978038;28;20459;-65
2021/04/30 11:36:57;;;;;;;17.20;15.50;;;9.40;99.90;;;;;;4977885;28;20438;-64
2021/04/30 11:39:29;;;;;;;16.80;15.23;;;9.60;99.90;;;;;;4977665;28;20618;-62
2021/04/30 11:42:04;;;;;;;17.87;16.07;;;9.60;99.90;;;;;;4977230;28;20490;-62
2021/04/30 11:44:31;;;;;;;17.37;15.67;;;9.30;99.90;;;;;;4977387;28;20458;-63
2021/04/30 11:47:03;;;;;;;16.57;14.90;;;9.40;99.90;;;;;;4977162;28;20454;-64
2021/04/30 11:49:31;;;;;;;18.27;16.57;;;9.20;99.90;;;;;;4977380;28;20439;-64
2021/04/30 11:51:58;;;;;;;18.67;16.80;;;9.00;99.90;;;;;;4977373;28;20470;-64
2021/04/30 11:54:30;;;;;;;19.27;17.17;;;8.90;99.90;;;;;;4977144;28;20459;-65
2021/04/30 11:56:58;;;;;;;17.60;15.80;;;8.80;99.90;;;;;;4977308;28;20461;-64
2021/04/30 11:59:24;;;;;;;17.77;16.03;;;8.80;99.90;;;;;;4976266;28;20449;-64
2021/04/30 12:02:03;;;;;;;18.17;16.27;;;8.60;99.90;;;;;;4976738;28;20892;-65
2021/04/30 12:04:44;;;;;;;18.80;16.90;;;8.50;99.90;;;;;;4977160;28;20857;-65
2021/04/30 12:07:13;;;;;;;17.97;16.17;;;8.40;99.90;;;;;;4977080;28;20510;-65
2021/04/30 12:09:39;;;;;;;23.73;17.70;;;8.40;99.90;;;;;;4977034;28;20486;-65
2021/04/30 12:12:13;;;;;;;20.50;18.50;;;8.30;99.90;;;;;;4976945;28;20525;-65
2021/04/30 12:14:44;;;;;;;19.73;17.90;;;8.30;99.90;;;;;;4977027;28;20457;-66
2021/04/30 12:17:21;;;;;;;19.70;17.83;;;8.00;99.90;;;;;;4976791;28;20458;-65
2021/04/30 12:20:09;;;;;;;21.00;18.70;;;8.00;99.90;;;;;;4976741;28;20494;-65
2021/04/30 12:22:47;;;;;;;19.57;17.67;;;8.10;99.90;;;;;;4973663;28;20545;-65
2021/04/30 12:25:37;;;;;;;17.33;15.63;;;8.00;99.90;;;;;;4976584;28;20439;-65
2021/04/30 12:28:25;;;;;;;16.87;15.13;;;8.00;99.90;;;;;;4976572;28;20447;-65
2021/04/30 12:30:58;;;;;;;18.50;16.60;;;7.70;99.90;;;;;;4976496;28;20486;-65
2021/04/30 12:33:31;;;;;;;18.10;16.20;;;7.70;99.90;;;;;;4976787;28;20490;-65
2021/04/30 12:35:59;;;;;;;19.43;16.53;;;7.80;99.90;;;;;;4976407;28;20439;-66
2021/04/30 12:38:27;;;;;;;20.87;18.40;;;7.90;99.90;;;;;;4976481;28;20478;-65
2021/04/30 12:40:54;;;;;;;18.60;16.60;;;8.00;99.90;;;;;;4976026;28;20474;-65
2021/04/30 12:43:24;;;;;;;18.73;16.83;;;7.90;99.90;;;;;;4976106;28;20475;-65
2021/04/30 12:45:51;;;;;;;19.47;17.23;;;7.80;99.90;;;;;;4976359;28;20485;-65
2021/04/30 12:48:17;;;;;;;17.43;14.90;;;8.00;99.90;;;;;;4975837;28;20817;-65
2021/04/30 12:50:45;;;;;;;15.63;14.00;;;8.20;99.90;;;;;;4976083;28;20478;-64
2021/04/30 12:53:11;;;;;;;17.07;15.37;;;8.10;99.90;;;;;;4976140;28;20450;-66
2021/04/30 12:55:39;;;;;;;16.57;15.07;;;8.20;99.90;;;;;;4975668;28;20457;-64
2021/04/30 12:58:14;;;;;;;17.33;15.63;;;8.10;99.90;;;;;;4975929;28;20553;-65
2021/04/30 13:01:10;;;;;;;15.77;14.23;;;8.00;99.90;;;;;;4975957;28;20486;-66
2021/04/30 13:03:41;;;;;;;15.80;14.20;;;8.10;99.90;;;;;;4976224;28;20471;-65
2021/04/30 13:06:11;;;;;;;17.40;15.70;;;8.00;99.90;;;;;;4975796;28;20937;-65
2021/04/30 13:08:40;;;;;;;16.90;15.20;;;8.10;99.90;;;;;;4975845;28;20821;-64
2021/04/30 13:11:08;;;;;;;17.97;16.17;;;8.20;99.90;;;;;;4975284;28;21008;-64
2021/04/30 13:14:00;;;;;;;17.27;15.47;;;8.20;99.90;;;;;;4975460;28;20462;-64
2021/04/30 13:16:38;;;;;;;16.80;15.17;;;8.20;99.90;;;;;;4975552;28;20910;-65
2021/04/30 13:19:06;;;;;;;19.17;17.30;;;8.20;99.90;;;;;;4975691;28;20442;-64
2021/04/30 13:21:34;;;;;;;17.80;15.90;;;8.30;99.90;;;;;;4975606;28;20535;-64
2021/04/30 13:24:21;;;;;;;19.03;17.10;;;8.20;99.90;;;;;;4975749;28;20459;-64
2021/04/30 13:27:04;;;;;;;20.87;15.90;;;8.00;99.90;;;;;;4975676;28;20450;-66
2021/04/30 13:29:32;;;;;;;17.80;16.10;;;8.10;99.90;;;;;;4975643;28;20446;-64
2021/04/30 13:32:04;;;;;;;17.83;15.93;;;8.20;99.90;;;;;;4975655;28;20477;-64
2021/04/30 13:34:36;;;;;;;18.30;16.40;;;8.10;99.90;;;;;;4975416;28;20529;-64
2021/04/30 13:37:06;;;;;;;18.40;16.50;;;8.10;99.90;;;;;;4975425;28;20922;-66
2021/04/30 13:39:34;;;;;;;18.00;16.30;;;8.20;99.90;;;;;;4975295;28;20439;-67
2021/04/30 13:42:01;;;;;;;16.87;15.30;;;8.30;99.90;;;;;;4975160;28;20487;-64
2021/04/30 13:44:28;;;;;;;19.20;17.20;;;8.10;99.90;;;;;;4974990;28;20455;-64
2021/04/30 13:46:56;;;;;;;19.07;17.17;;;8.30;99.90;;;;;;4975308;28;20463;-64
2021/04/30 13:49:46;;;;;;;17.73;15.93;;;8.40;99.90;;;;;;4975222;28;20454;-64
2021/04/30 13:52:13;;;;;;;18.83;16.93;;;8.50;99.90;;;;;;4974967;28;20566;-64
2021/04/30 13:54:39;;;;;;;18.93;17.17;;;8.60;99.90;;;;;;4980264;28;20465;-65
2021/04/30 13:57:06;;;;;;;18.07;16.27;;;8.70;99.90;;;;;;4985729;28;20945;-65
2021/04/30 13:59:33;;;;;;;19.10;17.27;;;8.70;99.90;;;;;;4987040;28;20454;-64
2021/04/30 14:02:00;;;;;;;20.60;17.43;;;8.80;99.90;;;;;;4985292;28;20521;-64
2021/04/30 14:04:26;;;;;;;18.43;16.63;;;8.80;99.90;;;;;;4984547;28;20454;-64
2021/04/30 14:06:52;;;;;;;17.27;15.57;;;8.90;99.90;;;;;;4983282;28;20443;-64
2021/04/30 14:09:20;;;;;;;18.07;16.37;;;8.90;99.90;;;;;;4981888;28;20946;-63
2021/04/30 14:11:46;;;;;;;19.30;17.40;;;8.70;99.90;;;;;;4984291;28;20500;-63
2021/04/30 14:14:13;;;;;;;18.33;16.57;;;8.60;99.90;;;;;;4984284;28;20455;-63
2021/04/30 14:16:39;;;;;;;20.17;18.00;;;8.70;99.90;;;;;;4987025;28;20458;-63
2021/04/30 14:19:05;;;;;;;18.80;16.90;;;8.70;99.90;;;;;;4988963;28;20458;-64
2021/04/30 14:21:31;;;;;;;19.37;17.47;;;8.60;99.90;;;;;;4984267;28;20843;-62
2021/04/30 14:24:00;;;;;;;23.17;19.17;;;8.60;99.90;;;;;;4983877;28;20455;-64
2021/04/30 14:26:27;;;;;;;21.30;19.23;;;8.40;99.90;;;;;;4983738;28;20474;-64
2021/04/30 14:28:53;;;;;;;19.80;17.90;;;8.50;99.90;;;;;;4980954;28;20956;-64
2021/04/30 14:31:20;;;;;;;20.60;18.50;;;8.40;99.90;;;;;;4974923;28;21016;-65
2021/04/30 14:33:46;;;;;;;20.07;17.93;;;8.50;99.90;;;;;;4975406;28;20458;-65
2021/04/30 14:36:12;;;;;;;20.23;18.13;;;8.60;99.90;;;;;;4976246;28;20458;-67
2021/04/30 14:38:39;;;;;;;19.17;17.20;;;8.70;99.90;;;;;;4975368;28;20465;-66
2021/04/30 14:41:06;;;;;;;19.23;17.33;;;8.80;99.90;;;;;;4975213;28;20497;-69
2021/04/30 14:43:33;;;;;;;19.90;18.10;;;8.80;99.90;;;;;;4974933;28;20494;-68
2021/04/30 14:46:00;;;;;;;19.40;17.40;;;8.90;99.90;;;;;;4975801;28;20457;-66
2021/04/30 14:48:26;;;;;;;19.37;17.47;;;9.10;99.90;;;;;;4981083;28;20435;-65
2021/04/30 14:50:54;;;;;;;20.20;18.17;;;9.20;99.90;;;;;;4979865;28;20475;-65
2021/04/30 14:53:21;;;;;;;20.40;18.30;;;9.20;99.90;;;;;;4979681;28;20439;-64
2021/04/30 14:55:48;;;;;;;18.63;16.83;;;9.10;99.90;;;;;;4980151;28;20435;-64
2021/04/30 14:58:14;;;;;;;20.07;17.90;;;9.30;99.90;;;;;;4981503;28;20467;-65
2021/04/30 15:00:41;;;;;;;19.10;17.30;;;9.30;99.90;;;;;;4981354;28;20486;-64
2021/04/30 15:03:07;;;;;;;20.33;18.53;;;9.30;99.90;;;;;;4979013;28;20462;-65
2021/04/30 15:05:35;;;;;;;20.30;18.20;;;9.20;99.90;;;;;;4980133;28;20459;-65
2021/04/30 15:08:01;;;;;;;20.50;18.30;;;9.30;99.90;;;;;;4978974;28;20549;-65
2021/04/30 15:10:27;;;;;;;19.83;17.83;;;9.40;99.90;;;;;;4979991;28;20439;-65
2021/04/30 15:12:54;;;;;;;20.90;18.80;;;9.40;99.90;;;;;;4974945;28;20450;-64
2021/04/30 15:15:21;;;;;;;18.50;16.70;;;9.40;99.90;;;;;;4974221;28;20509;-64
2021/04/30 15:17:48;;;;;;;17.33;15.63;;;9.40;99.90;;;;;;4974671;28;20940;-65
2021/04/30 15:20:14;;;;;;;18.13;16.43;;;9.30;99.90;;;;;;4974205;28;20477;-64
2021/04/30 15:22:40;;;;;;;16.40;14.70;;;9.30;99.90;;;;;;4974103;28;20490;-64
2021/04/30 15:25:08;;;;;;;17.43;15.77;;;9.40;99.90;;;;;;4974357;28;20466;-65
2021/04/30 15:27:34;;;;;;;17.10;15.60;;;9.40;99.90;;;;;;4974227;28;20530;-65
2021/04/30 15:30:00;;;;;;;20.03;17.90;;;9.40;99.90;;;;;;4974102;28;20950;-65
2021/04/30 15:32:27;;;;;;;20.70;18.80;;;9.30;99.90;;;;;;4974237;28;20482;-65
2021/04/30 15:34:54;;;;;;;18.80;17.00;;;9.10;99.90;;;;;;4975766;28;20980;-65
2021/04/30 15:37:20;;;;;;;17.73;16.13;;;9.20;99.90;;;;;;4977779;28;20462;-65
2021/04/30 15:39:46;;;;;;;20.00;18.07;;;9.30;99.90;;;;;;4977498;28;20952;-66
2021/04/30 15:42:12;;;;;;;20.50;18.40;;;9.40;99.90;;;;;;4977415;28;20478;-66
2021/04/30 15:44:39;;;;;;;18.77;16.77;;;9.30;99.90;;;;;;4977213;28;20953;-65
2021/04/30 15:47:05;;;;;;;20.03;18.13;;;9.20;99.90;;;;;;4977492;28;20482;-65
2021/04/30 15:49:31;;;;;;;20.00;18.20;;;9.10;99.90;;;;;;4977501;28;20865;-66
2021/04/30 15:51:58;;;;;;;20.23;18.27;;;9.10;99.90;;;;;;4977359;28;20475;-65
2021/04/30 15:54:26;;;;;;;18.80;16.97;;;9.10;99.90;;;;;;4977367;28;20459;-65
2021/04/30 15:56:52;;;;;;;19.80;17.77;;;9.10;99.90;;;;;;4977497;28;20478;-66
2021/04/30 15:59:18;;;;;;;19.27;16.93;;;9.00;99.90;;;;;;4977559;28;20462;-65
2021/04/30 16:01:44;;;;;;;19.20;17.30;;;9.00;99.90;;;;;;4976929;28;20993;-65
2021/04/30 16:04:11;;;;;;;21.47;19.37;;;8.90;99.90;;;;;;4977207;28;20465;-65
2021/04/30 16:06:37;;;;;;;19.63;17.67;;;9.00;99.90;;;;;;4977196;28;20459;-65
2021/04/30 16:09:04;;;;;;;18.10;16.27;;;9.10;99.90;;;;;;4977202;28;20458;-65
2021/04/30 16:11:31;;;;;;;18.60;16.60;;;9.10;99.90;;;;;;4977158;28;20470;-65
2021/04/30 16:13:58;;;;;;;21.23;18.60;;;9.30;99.90;;;;;;4976711;28;20945;-65
2021/04/30 16:16:24;;;;;;;17.87;16.27;;;9.40;99.90;;;;;;4976631;28;20825;-65
2021/04/30 16:18:51;;;;;;;20.10;18.00;;;9.20;99.90;;;;;;4976896;28;20545;-65
2021/04/30 16:21:17;;;;;;;19.87;17.90;;;9.20;99.90;;;;;;4977124;28;20477;-66
2021/04/30 16:23:44;;;;;;;19.13;17.17;;;9.10;99.90;;;;;;4976729;28;20537;-65
2021/04/30 16:26:12;;;;;;;20.10;17.93;;;9.20;99.90;;;;;;4976879;28;20546;-65
2021/04/30 16:28:38;;;;;;;20.37;18.37;;;9.10;99.90;;;;;;4977081;28;20822;-65
2021/04/30 16:31:06;;;;;;;19.50;17.70;;;9.10;99.90;;;;;;4977181;28;20482;-66
2021/04/30 16:33:33;;;;;;;18.33;16.70;;;9.30;99.90;;;;;;4977025;28;20937;-65
2021/04/30 16:35:59;;;;;;;20.47;18.37;;;9.40;99.90;;;;;;4976961;28;20458;-65
2021/04/30 16:38:25;;;;;;;19.07;17.17;;;9.30;99.90;;;;;;4976781;28;20439;-65
2021/04/30 16:40:52;;;;;;;19.47;17.67;;;9.40;99.90;;;;;;4976952;28;20486;-65
2021/04/30 16:43:21;;;;;;;18.50;16.63;;;9.40;99.90;;;;;;4976891;28;20511;-65
2021/04/30 16:45:47;;;;;;;20.17;18.27;;;9.40;99.90;;;;;;4976330;28;20461;-65